sensor_id;sensor_type;location;lat;lon;timestamp;P1;durP1;ratioP1;P2;durP2;ratioP2
19944;SDS011;10134;50.952;6.930;2023-06-26T00:01:43;6.25;;;4.55;;
19944;SDS011;10134;50.952;6.930;2023-06-26T00:04:10;6.68;;;4.90;;
19944;SDS011;10134;50.952;6.930;2023-06-26T00:06:41;7.45;;;4.50;;
19944;SDS011;10134;50.952;6.930;2023-06-26T00:09:08;6.07;;;4.65;;
19944;SDS011;10134;50.952;6.930;2023-06-26T00:11:36;6.50;;;4.90;;
19944;SDS011;10134;50.952;6.930;2023-06-26T00:14:03;6.32;;;4.45;;
19944;SDS011;10134;50.952;6.930;2023-06-26T00:16:30;7.15;;;4.70;;
19944;SDS011;10134;50.952;6.930;2023-06-26T00:18:58;5.97;;;4.30;;
19944;SDS011;10134;50.952;6.930;2023-06-26T00:21:25;6.22;;;4.97;;
19944;SDS011;10134;50.952;6.930;2023-06-26T00:23:53;5.72;;;4.78;;
19944;SDS011;10134;50.952;6.930;2023-06-26T00:26:21;5.18;;;4.30;;
19944;SDS011;10134;50.952;6.930;2023-06-26T00:28:48;6.85;;;4.97;;
19944;SDS011;10134;50.952;6.930;2023-06-26T00:31:15;8.10;;;5.00;;
19944;SDS011;10134;50.952;6.930;2023-06-26T00:33:43;7.25;;;4.53;;
19944;SDS011;10134;50.952;6.930;2023-06-26T00:36:10;5.05;;;4.38;;
19944;SDS011;10134;50.952;6.930;2023-06-26T00:38:37;6.63;;;4.68;;
19944;SDS011;10134;50.952;6.930;2023-06-26T00:41:05;5.30;;;4.45;;
19944;SDS011;10134;50.952;6.930;2023-06-26T00:43:39;5.32;;;4.50;;
19944;SDS011;10134;50.952;6.930;2023-06-26T00:46:10;9.10;;;5.15;;
19944;SDS011;10134;50.952;6.930;2023-06-26T00:48:41;7.47;;;4.90;;
19944;SDS011;10134;50.952;6.930;2023-06-26T00:51:12;5.30;;;4.38;;
19944;SDS011;10134;50.952;6.930;2023-06-26T00:53:39;6.38;;;5.18;;
19944;SDS011;10134;50.952;6.930;2023-06-26T00:56:08;7.22;;;5.55;;
19944;SDS011;10134;50.952;6.930;2023-06-26T00:58:36;7.82;;;4.57;;
19944;SDS011;10134;50.952;6.930;2023-06-26T01:01:03;6.68;;;4.60;;
19944;SDS011;10134;50.952;6.930;2023-06-26T01:03:32;6.57;;;5.18;;
19944;SDS011;10134;50.952;6.930;2023-06-26T01:06:01;11.23;;;8.27;;
19944;SDS011;10134;50.952;6.930;2023-06-26T01:08:31;7.47;;;5.32;;
19944;SDS011;10134;50.952;6.930;2023-06-26T01:10:59;6.63;;;5.03;;
19944;SDS011;10134;50.952;6.930;2023-06-26T01:13:26;6.72;;;5.32;;
19944;SDS011;10134;50.952;6.930;2023-06-26T01:15:57;6.70;;;4.93;;
19944;SDS011;10134;50.952;6.930;2023-06-26T01:18:25;8.27;;;5.25;;
19944;SDS011;10134;50.952;6.930;2023-06-26T01:20:53;6.30;;;4.88;;
19944;SDS011;10134;50.952;6.930;2023-06-26T01:23:24;9.40;;;4.80;;
19944;SDS011;10134;50.952;6.930;2023-06-26T01:28:42;6.00;;;4.68;;
19944;SDS011;10134;50.952;6.930;2023-06-26T01:31:10;7.22;;;5.13;;
19944;SDS011;10134;50.952;6.930;2023-06-26T01:33:39;5.68;;;4.82;;
19944;SDS011;10134;50.952;6.930;2023-06-26T01:36:07;7.72;;;5.10;;
19944;SDS011;10134;50.952;6.930;2023-06-26T01:38:35;5.72;;;4.90;;
19944;SDS011;10134;50.952;6.930;2023-06-26T01:41:03;5.97;;;5.03;;
19944;SDS011;10134;50.952;6.930;2023-06-26T01:43:36;6.45;;;5.18;;
19944;SDS011;10134;50.952;6.930;2023-06-26T01:46:25;5.85;;;5.05;;
19944;SDS011;10134;50.952;6.930;2023-06-26T01:49:03;6.05;;;4.93;;
19944;SDS011;10134;50.952;6.930;2023-06-26T01:51:51;6.40;;;4.63;;
19944;SDS011;10134;50.952;6.930;2023-06-26T01:54:21;6.35;;;4.85;;
19944;SDS011;10134;50.952;6.930;2023-06-26T01:56:52;5.10;;;4.15;;
19944;SDS011;10134;50.952;6.930;2023-06-26T01:59:22;8.68;;;6.00;;
19944;SDS011;10134;50.952;6.930;2023-06-26T02:01:52;6.63;;;5.05;;
19944;SDS011;10134;50.952;6.930;2023-06-26T02:04:19;6.13;;;4.90;;
19944;SDS011;10134;50.952;6.930;2023-06-26T02:06:47;5.28;;;4.43;;
19944;SDS011;10134;50.952;6.930;2023-06-26T02:09:14;6.32;;;4.95;;
19944;SDS011;10134;50.952;6.930;2023-06-26T02:11:43;6.72;;;4.95;;
19944;SDS011;10134;50.952;6.930;2023-06-26T02:14:10;6.20;;;5.07;;
19944;SDS011;10134;50.952;6.930;2023-06-26T02:16:39;6.40;;;5.13;;
19944;SDS011;10134;50.952;6.930;2023-06-26T02:19:06;5.68;;;4.85;;
19944;SDS011;10134;50.952;6.930;2023-06-26T02:21:34;6.47;;;5.10;;
19944;SDS011;10134;50.952;6.930;2023-06-26T02:24:02;6.30;;;5.10;;
19944;SDS011;10134;50.952;6.930;2023-06-26T02:26:32;6.25;;;5.20;;
19944;SDS011;10134;50.952;6.930;2023-06-26T02:28:59;7.05;;;5.43;;
19944;SDS011;10134;50.952;6.930;2023-06-26T02:31:27;7.25;;;5.28;;
19944;SDS011;10134;50.952;6.930;2023-06-26T02:33:55;7.22;;;5.47;;
19944;SDS011;10134;50.952;6.930;2023-06-26T02:36:22;8.30;;;5.85;;
19944;SDS011;10134;50.952;6.930;2023-06-26T02:38:49;7.15;;;5.68;;
19944;SDS011;10134;50.952;6.930;2023-06-26T02:41:18;7.55;;;5.57;;
19944;SDS011;10134;50.952;6.930;2023-06-26T02:43:45;6.60;;;5.22;;
19944;SDS011;10134;50.952;6.930;2023-06-26T02:46:12;6.18;;;5.10;;
19944;SDS011;10134;50.952;6.930;2023-06-26T02:48:40;6.22;;;5.18;;
19944;SDS011;10134;50.952;6.930;2023-06-26T02:51:07;6.03;;;5.35;;
19944;SDS011;10134;50.952;6.930;2023-06-26T02:53:35;6.60;;;5.15;;
19944;SDS011;10134;50.952;6.930;2023-06-26T02:56:04;6.72;;;4.95;;
19944;SDS011;10134;50.952;6.930;2023-06-26T02:58:32;6.90;;;5.60;;
19944;SDS011;10134;50.952;6.930;2023-06-26T03:00:59;6.68;;;5.22;;
19944;SDS011;10134;50.952;6.930;2023-06-26T03:03:26;6.72;;;4.93;;
19944;SDS011;10134;50.952;6.930;2023-06-26T03:05:54;7.32;;;5.50;;
19944;SDS011;10134;50.952;6.930;2023-06-26T03:08:21;6.45;;;5.07;;
19944;SDS011;10134;50.952;6.930;2023-06-26T03:10:48;6.53;;;4.90;;
19944;SDS011;10134;50.952;6.930;2023-06-26T03:13:16;6.50;;;4.65;;
19944;SDS011;10134;50.952;6.930;2023-06-26T03:15:43;8.82;;;5.60;;
19944;SDS011;10134;50.952;6.930;2023-06-26T03:18:11;8.20;;;5.10;;
19944;SDS011;10134;50.952;6.930;2023-06-26T03:20:38;5.47;;;4.57;;
19944;SDS011;10134;50.952;6.930;2023-06-26T03:23:06;5.97;;;4.18;;
19944;SDS011;10134;50.952;6.930;2023-06-26T03:25:33;7.70;;;5.13;;
19944;SDS011;10134;50.952;6.930;2023-06-26T03:28:15;7.05;;;4.50;;
19944;SDS011;10134;50.952;6.930;2023-06-26T03:30:42;6.72;;;5.07;;
19944;SDS011;10134;50.952;6.930;2023-06-26T03:33:10;7.45;;;5.28;;
19944;SDS011;10134;50.952;6.930;2023-06-26T03:35:38;8.13;;;4.90;;
19944;SDS011;10134;50.952;6.930;2023-06-26T03:38:05;7.00;;;5.38;;
19944;SDS011;10134;50.952;6.930;2023-06-26T03:40:33;14.27;;;5.28;;
19944;SDS011;10134;50.952;6.930;2023-06-26T03:43:00;6.85;;;5.20;;
19944;SDS011;10134;50.952;6.930;2023-06-26T03:45:31;5.57;;;4.20;;
19944;SDS011;10134;50.952;6.930;2023-06-26T03:47:58;6.68;;;4.45;;
19944;SDS011;10134;50.952;6.930;2023-06-26T03:50:25;5.85;;;4.35;;
19944;SDS011;10134;50.952;6.930;2023-06-26T03:52:52;6.60;;;4.53;;
19944;SDS011;10134;50.952;6.930;2023-06-26T03:55:21;7.57;;;4.53;;
19944;SDS011;10134;50.952;6.930;2023-06-26T03:57:50;5.65;;;3.75;;
19944;SDS011;10134;50.952;6.930;2023-06-26T04:00:17;7.45;;;5.05;;
19944;SDS011;10134;50.952;6.930;2023-06-26T04:02:44;18.63;;;4.55;;
19944;SDS011;10134;50.952;6.930;2023-06-26T04:05:12;7.30;;;4.63;;
19944;SDS011;10134;50.952;6.930;2023-06-26T04:07:41;6.35;;;4.20;;
19944;SDS011;10134;50.952;6.930;2023-06-26T04:10:08;6.38;;;4.22;;
19944;SDS011;10134;50.952;6.930;2023-06-26T04:12:36;5.95;;;4.43;;
19944;SDS011;10134;50.952;6.930;2023-06-26T04:15:03;5.97;;;4.60;;
19944;SDS011;10134;50.952;6.930;2023-06-26T04:17:31;5.95;;;4.55;;
19944;SDS011;10134;50.952;6.930;2023-06-26T04:19:58;5.82;;;3.75;;
19944;SDS011;10134;50.952;6.930;2023-06-26T04:22:25;4.82;;;3.97;;
19944;SDS011;10134;50.952;6.930;2023-06-26T04:24:53;6.93;;;5.00;;
19944;SDS011;10134;50.952;6.930;2023-06-26T04:27:20;6.30;;;4.43;;
19944;SDS011;10134;50.952;6.930;2023-06-26T04:29:47;8.70;;;4.38;;
19944;SDS011;10134;50.952;6.930;2023-06-26T04:32:14;12.57;;;5.68;;
19944;SDS011;10134;50.952;6.930;2023-06-26T04:34:42;8.27;;;4.32;;
19944;SDS011;10134;50.952;6.930;2023-06-26T04:37:12;6.18;;;4.57;;
19944;SDS011;10134;50.952;6.930;2023-06-26T04:39:43;7.20;;;3.70;;
19944;SDS011;10134;50.952;6.930;2023-06-26T04:42:10;5.32;;;4.38;;
19944;SDS011;10134;50.952;6.930;2023-06-26T04:44:38;12.82;;;4.47;;
19944;SDS011;10134;50.952;6.930;2023-06-26T04:47:08;10.60;;;4.38;;
19944;SDS011;10134;50.952;6.930;2023-06-26T04:49:35;8.65;;;4.40;;
19944;SDS011;10134;50.952;6.930;2023-06-26T04:52:05;7.53;;;4.22;;
19944;SDS011;10134;50.952;6.930;2023-06-26T04:54:32;5.72;;;4.22;;
19944;SDS011;10134;50.952;6.930;2023-06-26T04:56:59;5.38;;;3.83;;
19944;SDS011;10134;50.952;6.930;2023-06-26T04:59:27;5.82;;;4.00;;
19944;SDS011;10134;50.952;6.930;2023-06-26T05:01:55;11.80;;;4.38;;
19944;SDS011;10134;50.952;6.930;2023-06-26T05:04:23;10.35;;;4.28;;
19944;SDS011;10134;50.952;6.930;2023-06-26T05:06:50;6.10;;;4.22;;
19944;SDS011;10134;50.952;6.930;2023-06-26T05:09:17;5.40;;;3.28;;
19944;SDS011;10134;50.952;6.930;2023-06-26T05:11:45;9.18;;;4.38;;
19944;SDS011;10134;50.952;6.930;2023-06-26T05:14:12;10.40;;;5.90;;
19944;SDS011;10134;50.952;6.930;2023-06-26T05:16:40;6.50;;;4.05;;
19944;SDS011;10134;50.952;6.930;2023-06-26T05:19:07;6.78;;;4.32;;
19944;SDS011;10134;50.952;6.930;2023-06-26T05:21:34;6.88;;;3.90;;
19944;SDS011;10134;50.952;6.930;2023-06-26T05:24:02;6.03;;;3.65;;
19944;SDS011;10134;50.952;6.930;2023-06-26T05:26:30;6.60;;;3.95;;
19944;SDS011;10134;50.952;6.930;2023-06-26T05:28:57;7.47;;;3.35;;
19944;SDS011;10134;50.952;6.930;2023-06-26T05:31:25;5.40;;;3.97;;
19944;SDS011;10134;50.952;6.930;2023-06-26T05:33:53;6.60;;;3.70;;
19944;SDS011;10134;50.952;6.930;2023-06-26T05:36:22;6.70;;;4.32;;
19944;SDS011;10134;50.952;6.930;2023-06-26T05:38:51;7.15;;;3.92;;
19944;SDS011;10134;50.952;6.930;2023-06-26T05:41:19;6.13;;;4.25;;
19944;SDS011;10134;50.952;6.930;2023-06-26T05:43:46;7.95;;;4.15;;
19944;SDS011;10134;50.952;6.930;2023-06-26T05:46:14;5.00;;;3.20;;
19944;SDS011;10134;50.952;6.930;2023-06-26T05:48:41;5.55;;;3.70;;
19944;SDS011;10134;50.952;6.930;2023-06-26T05:51:08;7.38;;;4.00;;
19944;SDS011;10134;50.952;6.930;2023-06-26T05:53:36;11.90;;;3.42;;
19944;SDS011;10134;50.952;6.930;2023-06-26T05:56:04;6.20;;;3.63;;
19944;SDS011;10134;50.952;6.930;2023-06-26T05:58:31;5.00;;;3.20;;
19944;SDS011;10134;50.952;6.930;2023-06-26T06:00:59;6.55;;;3.67;;
19944;SDS011;10134;50.952;6.930;2023-06-26T06:03:27;9.88;;;3.60;;
19944;SDS011;10134;50.952;6.930;2023-06-26T06:05:54;5.00;;;2.85;;
19944;SDS011;10134;50.952;6.930;2023-06-26T06:08:21;5.07;;;3.08;;
19944;SDS011;10134;50.952;6.930;2023-06-26T06:10:49;4.65;;;3.80;;
19944;SDS011;10134;50.952;6.930;2023-06-26T06:13:16;6.20;;;3.17;;
19944;SDS011;10134;50.952;6.930;2023-06-26T06:15:43;12.40;;;4.22;;
19944;SDS011;10134;50.952;6.930;2023-06-26T06:18:10;5.82;;;3.13;;
19944;SDS011;10134;50.952;6.930;2023-06-26T06:20:38;6.38;;;3.60;;
19944;SDS011;10134;50.952;6.930;2023-06-26T06:23:05;7.85;;;3.70;;
19944;SDS011;10134;50.952;6.930;2023-06-26T06:25:33;5.55;;;4.03;;
19944;SDS011;10134;50.952;6.930;2023-06-26T06:28:00;6.10;;;2.80;;
19944;SDS011;10134;50.952;6.930;2023-06-26T06:30:27;7.20;;;3.47;;
19944;SDS011;10134;50.952;6.930;2023-06-26T06:33:01;4.90;;;2.92;;
19944;SDS011;10134;50.952;6.930;2023-06-26T06:35:28;6.43;;;3.50;;
19944;SDS011;10134;50.952;6.930;2023-06-26T06:37:56;12.80;;;3.40;;
19944;SDS011;10134;50.952;6.930;2023-06-26T06:40:23;12.70;;;4.13;;
19944;SDS011;10134;50.952;6.930;2023-06-26T06:42:52;7.50;;;3.50;;
19944;SDS011;10134;50.952;6.930;2023-06-26T06:45:19;6.72;;;3.20;;
19944;SDS011;10134;50.952;6.930;2023-06-26T06:47:47;7.57;;;3.78;;
19944;SDS011;10134;50.952;6.930;2023-06-26T06:50:14;9.98;;;3.85;;
19944;SDS011;10134;50.952;6.930;2023-06-26T06:52:43;11.63;;;3.40;;
19944;SDS011;10134;50.952;6.930;2023-06-26T06:55:10;9.50;;;3.05;;
19944;SDS011;10134;50.952;6.930;2023-06-26T06:57:38;5.05;;;3.20;;
19944;SDS011;10134;50.952;6.930;2023-06-26T07:00:10;7.88;;;3.55;;
19944;SDS011;10134;50.952;6.930;2023-06-26T07:02:39;6.45;;;3.25;;
19944;SDS011;10134;50.952;6.930;2023-06-26T07:05:07;5.25;;;3.28;;
19944;SDS011;10134;50.952;6.930;2023-06-26T07:07:36;5.55;;;3.20;;
19944;SDS011;10134;50.952;6.930;2023-06-26T07:10:05;11.13;;;4.75;;
19944;SDS011;10134;50.952;6.930;2023-06-26T07:12:37;5.97;;;2.92;;
19944;SDS011;10134;50.952;6.930;2023-06-26T07:15:05;9.32;;;4.35;;
19944;SDS011;10134;50.952;6.930;2023-06-26T07:17:33;10.65;;;3.92;;
19944;SDS011;10134;50.952;6.930;2023-06-26T07:20:01;6.10;;;3.08;;
19944;SDS011;10134;50.952;6.930;2023-06-26T07:22:34;6.70;;;3.13;;
19944;SDS011;10134;50.952;6.930;2023-06-26T07:25:02;8.57;;;4.03;;
19944;SDS011;10134;50.952;6.930;2023-06-26T07:27:30;8.43;;;3.90;;
19944;SDS011;10134;50.952;6.930;2023-06-26T07:29:58;6.70;;;4.18;;
19944;SDS011;10134;50.952;6.930;2023-06-26T07:32:25;6.35;;;3.72;;
19944;SDS011;10134;50.952;6.930;2023-06-26T07:34:52;6.57;;;3.33;;
19944;SDS011;10134;50.952;6.930;2023-06-26T07:37:19;6.07;;;3.47;;
19944;SDS011;10134;50.952;6.930;2023-06-26T07:39:47;7.20;;;4.00;;
19944;SDS011;10134;50.952;6.930;2023-06-26T07:42:15;14.63;;;7.80;;
19944;SDS011;10134;50.952;6.930;2023-06-26T07:44:43;10.85;;;3.40;;
19944;SDS011;10134;50.952;6.930;2023-06-26T07:47:10;6.55;;;3.40;;
19944;SDS011;10134;50.952;6.930;2023-06-26T07:49:38;6.72;;;3.15;;
19944;SDS011;10134;50.952;6.930;2023-06-26T07:52:06;11.82;;;4.18;;
19944;SDS011;10134;50.952;6.930;2023-06-26T07:54:34;5.53;;;3.00;;
19944;SDS011;10134;50.952;6.930;2023-06-26T07:57:02;7.45;;;3.65;;
19944;SDS011;10134;50.952;6.930;2023-06-26T07:59:33;11.90;;;3.30;;
19944;SDS011;10134;50.952;6.930;2023-06-26T08:02:01;7.15;;;3.55;;
19944;SDS011;10134;50.952;6.930;2023-06-26T08:04:29;10.43;;;3.15;;
19944;SDS011;10134;50.952;6.930;2023-06-26T08:07:02;6.15;;;3.33;;
19944;SDS011;10134;50.952;6.930;2023-06-26T08:09:30;7.57;;;3.53;;
19944;SDS011;10134;50.952;6.930;2023-06-26T08:11:58;5.80;;;3.33;;
19944;SDS011;10134;50.952;6.930;2023-06-26T08:14:26;6.38;;;3.33;;
19944;SDS011;10134;50.952;6.930;2023-06-26T08:16:53;11.23;;;4.05;;
19944;SDS011;10134;50.952;6.930;2023-06-26T08:19:20;7.63;;;3.33;;
19944;SDS011;10134;50.952;6.930;2023-06-26T08:21:48;12.43;;;4.18;;
19944;SDS011;10134;50.952;6.930;2023-06-26T08:24:15;11.40;;;4.05;;
19944;SDS011;10134;50.952;6.930;2023-06-26T08:26:46;7.57;;;4.00;;
19944;SDS011;10134;50.952;6.930;2023-06-26T08:29:14;8.95;;;3.72;;
19944;SDS011;10134;50.952;6.930;2023-06-26T08:31:42;8.90;;;3.72;;
19944;SDS011;10134;50.952;6.930;2023-06-26T08:34:12;12.27;;;4.03;;
19944;SDS011;10134;50.952;6.930;2023-06-26T08:36:40;6.65;;;3.63;;
19944;SDS011;10134;50.952;6.930;2023-06-26T08:39:07;10.05;;;4.13;;
19944;SDS011;10134;50.952;6.930;2023-06-26T08:41:35;9.02;;;3.33;;
19944;SDS011;10134;50.952;6.930;2023-06-26T08:44:03;7.35;;;3.65;;
19944;SDS011;10134;50.952;6.930;2023-06-26T08:46:31;7.00;;;3.67;;
19944;SDS011;10134;50.952;6.930;2023-06-26T08:50:02;9.80;;;3.78;;
19944;SDS011;10134;50.952;6.930;2023-06-26T08:52:19;9.60;;;3.40;;
19944;SDS011;10134;50.952;6.930;2023-06-26T08:54:52;5.72;;;3.22;;
19944;SDS011;10134;50.952;6.930;2023-06-26T08:57:24;7.43;;;3.15;;
19944;SDS011;10134;50.952;6.930;2023-06-26T08:59:52;9.65;;;3.20;;
19944;SDS011;10134;50.952;6.930;2023-06-26T09:02:21;7.00;;;2.92;;
19944;SDS011;10134;50.952;6.930;2023-06-26T09:04:48;6.85;;;3.08;;
19944;SDS011;10134;50.952;6.930;2023-06-26T09:07:16;7.03;;;3.78;;
19944;SDS011;10134;50.952;6.930;2023-06-26T09:09:47;5.25;;;3.35;;
19944;SDS011;10134;50.952;6.930;2023-06-26T09:12:14;6.47;;;3.85;;
19944;SDS011;10134;50.952;6.930;2023-06-26T09:14:41;6.75;;;3.90;;
19944;SDS011;10134;50.952;6.930;2023-06-26T09:17:09;8.90;;;2.92;;
19944;SDS011;10134;50.952;6.930;2023-06-26T09:19:36;5.85;;;3.30;;
19944;SDS011;10134;50.952;6.930;2023-06-26T09:22:10;5.68;;;3.30;;
19944;SDS011;10134;50.952;6.930;2023-06-26T09:24:40;8.13;;;3.15;;
19944;SDS011;10134;50.952;6.930;2023-06-26T09:27:09;8.95;;;3.30;;
19944;SDS011;10134;50.952;6.930;2023-06-26T09:29:36;9.85;;;3.35;;
19944;SDS011;10134;50.952;6.930;2023-06-26T09:32:04;10.85;;;3.72;;
19944;SDS011;10134;50.952;6.930;2023-06-26T09:34:34;8.85;;;3.72;;
19944;SDS011;10134;50.952;6.930;2023-06-26T09:37:01;7.80;;;3.58;;
19944;SDS011;10134;50.952;6.930;2023-06-26T09:39:30;7.40;;;3.72;;
19944;SDS011;10134;50.952;6.930;2023-06-26T09:41:58;8.13;;;3.22;;
19944;SDS011;10134;50.952;6.930;2023-06-26T09:44:26;7.10;;;3.08;;
19944;SDS011;10134;50.952;6.930;2023-06-26T09:46:54;10.07;;;2.92;;
19944;SDS011;10134;50.952;6.930;2023-06-26T09:49:23;8.88;;;3.28;;
19944;SDS011;10134;50.952;6.930;2023-06-26T09:51:51;7.38;;;3.22;;
19944;SDS011;10134;50.952;6.930;2023-06-26T09:54:18;4.75;;;3.28;;
19944;SDS011;10134;50.952;6.930;2023-06-26T09:56:48;4.78;;;2.60;;
19944;SDS011;10134;50.952;6.930;2023-06-26T09:59:16;8.38;;;3.88;;
19944;SDS011;10134;50.952;6.930;2023-06-26T10:01:45;5.43;;;2.80;;
19944;SDS011;10134;50.952;6.930;2023-06-26T10:04:12;6.40;;;2.67;;
19944;SDS011;10134;50.952;6.930;2023-06-26T10:06:43;10.73;;;3.28;;
19944;SDS011;10134;50.952;6.930;2023-06-26T10:09:14;5.50;;;2.80;;
19944;SDS011;10134;50.952;6.930;2023-06-26T10:11:50;5.20;;;2.88;;
19944;SDS011;10134;50.952;6.930;2023-06-26T10:14:29;7.15;;;2.75;;
19944;SDS011;10134;50.952;6.930;2023-06-26T10:17:13;4.78;;;2.60;;
19944;SDS011;10134;50.952;6.930;2023-06-26T10:19:45;8.07;;;3.30;;
19944;SDS011;10134;50.952;6.930;2023-06-26T10:22:16;7.80;;;2.67;;
19944;SDS011;10134;50.952;6.930;2023-06-26T10:24:49;6.18;;;2.70;;
19944;SDS011;10134;50.952;6.930;2023-06-26T10:27:20;6.40;;;3.40;;
19944;SDS011;10134;50.952;6.930;2023-06-26T10:29:59;4.65;;;2.63;;
19944;SDS011;10134;50.952;6.930;2023-06-26T10:32:29;9.70;;;2.53;;
19944;SDS011;10134;50.952;6.930;2023-06-26T10:34:58;6.20;;;2.33;;
19944;SDS011;10134;50.952;6.930;2023-06-26T10:37:44;5.97;;;2.05;;
19944;SDS011;10134;50.952;6.930;2023-06-26T10:40:13;4.22;;;2.33;;
19944;SDS011;10134;50.952;6.930;2023-06-26T10:42:47;6.47;;;2.53;;
19944;SDS011;10134;50.952;6.930;2023-06-26T10:45:16;6.70;;;2.38;;
19944;SDS011;10134;50.952;6.930;2023-06-26T10:47:48;5.35;;;2.92;;
19944;SDS011;10134;50.952;6.930;2023-06-26T10:50:29;6.55;;;2.20;;
19944;SDS011;10134;50.952;6.930;2023-06-26T10:53:11;4.85;;;1.88;;
19944;SDS011;10134;50.952;6.930;2023-06-26T10:55:42;3.65;;;1.80;;
19944;SDS011;10134;50.952;6.930;2023-06-26T11:01:19;4.00;;;2.63;;
19944;SDS011;10134;50.952;6.930;2023-06-26T11:06:25;6.85;;;2.30;;
19944;SDS011;10134;50.952;6.930;2023-06-26T11:14:22;4.90;;;2.17;;
19944;SDS011;10134;50.952;6.930;2023-06-26T11:16:50;5.03;;;2.03;;
19944;SDS011;10134;50.952;6.930;2023-06-26T11:19:18;3.55;;;1.65;;
19944;SDS011;10134;50.952;6.930;2023-06-26T11:21:47;7.80;;;2.88;;
19944;SDS011;10134;50.952;6.930;2023-06-26T11:24:14;9.32;;;2.65;;
19944;SDS011;10134;50.952;6.930;2023-06-26T11:26:43;3.80;;;2.42;;
19944;SDS011;10134;50.952;6.930;2023-06-26T11:29:12;6.53;;;2.10;;
19944;SDS011;10134;50.952;6.930;2023-06-26T11:31:40;8.88;;;2.60;;
19944;SDS011;10134;50.952;6.930;2023-06-26T11:34:09;6.95;;;2.28;;
19944;SDS011;10134;50.952;6.930;2023-06-26T11:36:39;6.47;;;2.08;;
19944;SDS011;10134;50.952;6.930;2023-06-26T11:39:08;4.22;;;2.22;;
19944;SDS011;10134;50.952;6.930;2023-06-26T11:41:37;4.80;;;2.15;;
19944;SDS011;10134;50.952;6.930;2023-06-26T11:44:09;4.80;;;1.70;;
19944;SDS011;10134;50.952;6.930;2023-06-26T11:46:37;6.00;;;2.17;;
19944;SDS011;10134;50.952;6.930;2023-06-26T11:49:05;6.68;;;2.95;;
19944;SDS011;10134;50.952;6.930;2023-06-26T11:51:34;6.55;;;2.00;;
19944;SDS011;10134;50.952;6.930;2023-06-26T11:54:03;3.05;;;1.85;;
19944;SDS011;10134;50.952;6.930;2023-06-26T11:56:31;3.90;;;1.98;;
19944;SDS011;10134;50.952;6.930;2023-06-26T11:59:10;4.25;;;1.63;;
19944;SDS011;10134;50.952;6.930;2023-06-26T12:01:40;8.65;;;2.58;;
19944;SDS011;10134;50.952;6.930;2023-06-26T12:04:09;7.15;;;1.70;;
19944;SDS011;10134;50.952;6.930;2023-06-26T12:06:38;4.13;;;1.70;;
19944;SDS011;10134;50.952;6.930;2023-06-26T12:09:08;4.40;;;1.65;;
19944;SDS011;10134;50.952;6.930;2023-06-26T12:11:38;5.18;;;1.92;;
19944;SDS011;10134;50.952;6.930;2023-06-26T12:14:10;8.80;;;1.73;;
19944;SDS011;10134;50.952;6.930;2023-06-26T12:16:39;6.40;;;1.75;;
19944;SDS011;10134;50.952;6.930;2023-06-26T12:19:07;5.40;;;1.67;;
19944;SDS011;10134;50.952;6.930;2023-06-26T12:24:09;4.97;;;1.90;;
19944;SDS011;10134;50.952;6.930;2023-06-26T12:26:42;4.68;;;1.63;;
19944;SDS011;10134;50.952;6.930;2023-06-26T12:29:33;3.55;;;1.50;;
19944;SDS011;10134;50.952;6.930;2023-06-26T12:32:01;4.50;;;2.10;;
19944;SDS011;10134;50.952;6.930;2023-06-26T12:34:32;4.07;;;1.45;;
19944;SDS011;10134;50.952;6.930;2023-06-26T12:37:01;3.13;;;1.35;;
19944;SDS011;10134;50.952;6.930;2023-06-26T12:39:46;6.15;;;2.42;;
19944;SDS011;10134;50.952;6.930;2023-06-26T12:42:16;6.50;;;2.50;;
19944;SDS011;10134;50.952;6.930;2023-06-26T12:44:47;14.27;;;7.07;;
19944;SDS011;10134;50.952;6.930;2023-06-26T12:47:15;5.85;;;2.50;;
19944;SDS011;10134;50.952;6.930;2023-06-26T12:49:44;3.65;;;1.60;;
19944;SDS011;10134;50.952;6.930;2023-06-26T12:52:16;4.20;;;1.42;;
19944;SDS011;10134;50.952;6.930;2023-06-26T12:54:45;4.30;;;1.58;;
19944;SDS011;10134;50.952;6.930;2023-06-26T12:57:14;5.15;;;1.30;;
19944;SDS011;10134;50.952;6.930;2023-06-26T12:59:41;2.70;;;1.40;;
19944;SDS011;10134;50.952;6.930;2023-06-26T13:02:09;4.13;;;1.17;;
19944;SDS011;10134;50.952;6.930;2023-06-26T13:04:40;5.80;;;1.33;;
19944;SDS011;10134;50.952;6.930;2023-06-26T13:07:08;7.65;;;1.35;;
19944;SDS011;10134;50.952;6.930;2023-06-26T13:09:35;3.55;;;1.40;;
19944;SDS011;10134;50.952;6.930;2023-06-26T13:12:06;4.88;;;1.20;;
19944;SDS011;10134;50.952;6.930;2023-06-26T13:14:35;10.85;;;1.95;;
19944;SDS011;10134;50.952;6.930;2023-06-26T13:17:02;5.22;;;1.40;;
19944;SDS011;10134;50.952;6.930;2023-06-26T13:19:33;8.70;;;2.80;;
19944;SDS011;10134;50.952;6.930;2023-06-26T13:22:00;5.10;;;1.27;;
19944;SDS011;10134;50.952;6.930;2023-06-26T13:24:27;10.50;;;1.63;;
19944;SDS011;10134;50.952;6.930;2023-06-26T13:26:54;12.27;;;2.00;;
19944;SDS011;10134;50.952;6.930;2023-06-26T13:29:22;8.88;;;1.90;;
19944;SDS011;10134;50.952;6.930;2023-06-26T13:31:49;4.18;;;1.10;;
19944;SDS011;10134;50.952;6.930;2023-06-26T13:34:20;9.75;;;1.73;;
19944;SDS011;10134;50.952;6.930;2023-06-26T13:36:50;6.22;;;1.30;;
19944;SDS011;10134;50.952;6.930;2023-06-26T13:39:17;8.07;;;1.60;;
19944;SDS011;10134;50.952;6.930;2023-06-26T13:41:44;3.22;;;1.15;;
19944;SDS011;10134;50.952;6.930;2023-06-26T13:44:12;5.75;;;1.15;;
19944;SDS011;10134;50.952;6.930;2023-06-26T13:46:59;6.47;;;1.40;;
19944;SDS011;10134;50.952;6.930;2023-06-26T13:49:27;3.05;;;1.27;;
19944;SDS011;10134;50.952;6.930;2023-06-26T13:51:54;5.70;;;1.85;;
19944;SDS011;10134;50.952;6.930;2023-06-26T13:54:22;4.55;;;1.55;;
19944;SDS011;10134;50.952;6.930;2023-06-26T13:56:49;6.32;;;1.77;;
19944;SDS011;10134;50.952;6.930;2023-06-26T13:59:17;5.47;;;1.40;;
19944;SDS011;10134;50.952;6.930;2023-06-26T14:01:47;6.55;;;1.75;;
19944;SDS011;10134;50.952;6.930;2023-06-26T14:04:19;2.15;;;1.40;;
19944;SDS011;10134;50.952;6.930;2023-06-26T14:06:47;8.73;;;1.05;;
19944;SDS011;10134;50.952;6.930;2023-06-26T14:09:15;5.55;;;2.95;;
19944;SDS011;10134;50.952;6.930;2023-06-26T14:11:43;5.38;;;1.77;;
19944;SDS011;10134;50.952;6.930;2023-06-26T14:14:10;3.67;;;1.20;;
19944;SDS011;10134;50.952;6.930;2023-06-26T14:16:38;3.20;;;1.48;;
19944;SDS011;10134;50.952;6.930;2023-06-26T14:19:07;4.40;;;1.02;;
19944;SDS011;10134;50.952;6.930;2023-06-26T14:21:34;6.63;;;1.55;;
19944;SDS011;10134;50.952;6.930;2023-06-26T14:24:01;9.63;;;1.73;;
19944;SDS011;10134;50.952;6.930;2023-06-26T14:26:29;6.40;;;1.60;;
19944;SDS011;10134;50.952;6.930;2023-06-26T14:28:56;5.15;;;1.08;;
19944;SDS011;10134;50.952;6.930;2023-06-26T14:31:24;5.28;;;1.42;;
19944;SDS011;10134;50.952;6.930;2023-06-26T14:33:52;2.58;;;1.10;;
19944;SDS011;10134;50.952;6.930;2023-06-26T14:36:19;8.80;;;1.45;;
19944;SDS011;10134;50.952;6.930;2023-06-26T14:38:46;5.50;;;2.03;;
19944;SDS011;10134;50.952;6.930;2023-06-26T14:41:14;8.73;;;1.23;;
19944;SDS011;10134;50.952;6.930;2023-06-26T14:43:42;7.25;;;1.30;;
19944;SDS011;10134;50.952;6.930;2023-06-26T14:46:10;5.60;;;1.88;;
19944;SDS011;10134;50.952;6.930;2023-06-26T14:48:38;7.03;;;1.27;;
19944;SDS011;10134;50.952;6.930;2023-06-26T14:51:05;5.45;;;2.03;;
19944;SDS011;10134;50.952;6.930;2023-06-26T14:53:33;5.13;;;1.30;;
19944;SDS011;10134;50.952;6.930;2023-06-26T14:56:02;5.55;;;1.40;;
19944;SDS011;10134;50.952;6.930;2023-06-26T14:58:29;4.45;;;1.40;;
19944;SDS011;10134;50.952;6.930;2023-06-26T15:00:57;3.45;;;1.25;;
19944;SDS011;10134;50.952;6.930;2023-06-26T15:03:24;7.95;;;1.38;;
19944;SDS011;10134;50.952;6.930;2023-06-26T15:05:52;6.60;;;1.38;;
19944;SDS011;10134;50.952;6.930;2023-06-26T15:08:19;5.80;;;1.30;;
19944;SDS011;10134;50.952;6.930;2023-06-26T15:10:46;8.32;;;2.00;;
19944;SDS011;10134;50.952;6.930;2023-06-26T15:13:14;3.97;;;1.27;;